createdAt,value
2023-05-07T00:04:45.308Z,0.90
2023-05-07T00:09:47.657Z,1.00
2023-05-07T00:14:49.934Z,0.70
2023-05-07T00:19:53.713Z,0.70
2023-05-07T00:24:56.107Z,1.20
2023-05-07T00:29:58.276Z,0.80
2023-05-07T00:35:01.555Z,0.90
2023-05-07T00:40:06.073Z,0.80
2023-05-07T00:45:09.444Z,0.90
2023-05-07T00:50:14.154Z,0.77
2023-05-07T00:55:16.771Z,0.80
2023-05-07T01:00:19.291Z,0.80
2023-05-07T01:05:25.680Z,0.90
2023-05-07T01:10:29.243Z,0.70
2023-05-07T01:15:31.418Z,0.70
2023-05-07T01:20:34.670Z,1.53
2023-05-07T01:25:38.687Z,0.70
2023-05-07T01:30:44.399Z,0.60
2023-05-07T01:35:49.540Z,0.70
2023-05-07T01:40:53.158Z,0.80
2023-05-07T01:45:56.224Z,0.80
2023-05-07T01:50:58.436Z,0.80
2023-05-07T01:56:01.891Z,0.83
2023-05-07T02:01:04.458Z,0.77
2023-05-07T02:06:06.707Z,1.30
2023-05-07T02:11:10.088Z,0.90
2023-05-07T02:16:12.062Z,1.27
2023-05-07T02:21:14.346Z,1.40
2023-05-07T02:26:18.313Z,1.20
2023-05-07T02:31:20.527Z,1.00
2023-05-07T02:36:22.209Z,1.40
2023-05-07T02:41:25.770Z,1.50
2023-05-07T02:46:27.933Z,1.53
2023-05-07T02:51:29.936Z,1.10
2023-05-07T02:56:33.222Z,1.00
2023-05-07T03:01:34.956Z,1.00
2023-05-07T03:06:36.828Z,1.00
2023-05-07T03:11:40.323Z,1.20
2023-05-07T03:16:42.475Z,1.13
2023-05-07T03:21:44.256Z,1.10
2023-05-07T03:26:47.914Z,1.30
2023-05-07T03:31:50.138Z,0.90
2023-05-07T03:36:52.130Z,0.83
2023-05-07T03:41:55.576Z,0.80
2023-05-07T03:46:57.664Z,0.83
2023-05-07T03:51:59.613Z,0.70
2023-05-07T03:57:03.197Z,0.70
2023-05-07T04:02:05.723Z,1.00
2023-05-07T04:07:08.499Z,1.10
2023-05-07T04:12:11.885Z,0.70
2023-05-07T04:17:14.262Z,1.00
2023-05-07T04:22:16.045Z,0.97
2023-05-07T04:27:19.218Z,1.40
2023-05-07T04:32:21.404Z,1.40
2023-05-07T04:37:23.372Z,1.23
2023-05-07T04:42:26.722Z,1.20
2023-05-07T04:47:28.705Z,1.00
2023-05-07T04:52:30.908Z,1.47
2023-05-07T04:57:33.965Z,1.10
2023-05-07T05:02:35.868Z,1.13
2023-05-07T05:07:37.482Z,1.47
2023-05-07T05:12:40.661Z,1.60
2023-05-07T05:17:42.918Z,1.80
2023-05-07T05:22:44.981Z,1.40
2023-05-07T05:27:49.826Z,1.53
2023-05-07T05:32:52.151Z,1.43
2023-05-07T05:37:54.119Z,1.63
2023-05-07T05:42:57.572Z,1.20
2023-05-07T05:47:59.370Z,1.53
2023-05-07T05:53:01.671Z,2.20
2023-05-07T05:58:05.356Z,1.33
2023-05-07T06:03:07.557Z,1.30
2023-05-07T06:08:10.175Z,1.37
2023-05-07T06:13:13.568Z,1.33
2023-05-07T06:18:16.113Z,1.07
2023-05-07T06:23:18.292Z,1.30
2023-05-07T06:28:21.881Z,0.70
2023-05-07T06:33:23.889Z,0.93
2023-05-07T06:38:26.220Z,0.70
2023-05-07T06:43:29.592Z,0.70
2023-05-07T06:48:31.469Z,0.77
2023-05-07T06:53:33.287Z,0.77
2023-05-07T06:58:36.520Z,0.60
2023-05-07T07:03:38.336Z,1.10
2023-05-07T07:08:40.973Z,1.07
2023-05-07T07:13:44.584Z,0.90
2023-05-07T07:18:46.542Z,5.40
2023-05-07T07:23:48.670Z,1.53
2023-05-07T07:28:52.111Z,2.67
2023-05-07T07:33:54.211Z,0.53
2023-05-07T07:38:56.375Z,0.60
2023-05-07T07:44:00.058Z,0.70
2023-05-07T07:49:02.257Z,1.17
2023-05-07T07:54:04.153Z,1.57
2023-05-07T07:59:07.858Z,1.50
2023-05-07T08:04:09.787Z,0.60
2023-05-07T08:09:11.919Z,0.73
2023-05-07T08:14:16.880Z,1.03
2023-05-07T08:19:19.109Z,0.60
2023-05-07T08:24:21.367Z,0.80
2023-05-07T08:29:25.059Z,1.00
2023-05-07T08:34:27.034Z,0.90
2023-05-07T08:39:28.971Z,0.70
2023-05-07T08:44:36.455Z,1.33
2023-05-07T08:49:38.888Z,0.70
2023-05-07T08:54:41.517Z,0.70
2023-05-07T08:59:44.999Z,0.73
2023-05-07T09:04:47.528Z,0.82
2023-05-07T09:09:49.848Z,0.75
2023-05-07T09:14:53.802Z,0.70
2023-05-07T09:19:56.626Z,0.88
2023-05-07T09:24:58.934Z,0.90
2023-05-07T09:30:07.336Z,1.58
2023-05-07T09:35:18.260Z,0.90
2023-05-07T09:40:24.833Z,0.70
2023-05-07T09:45:29.840Z,0.90
2023-05-07T09:50:37.272Z,0.80
2023-05-07T09:55:40.895Z,0.80
2023-05-07T10:00:45.045Z,1.80
2023-05-07T10:05:48.667Z,0.90
2023-05-07T10:10:52.025Z,0.85
2023-05-07T10:15:57.309Z,0.63
2023-05-07T10:21:04.472Z,0.60
2023-05-07T10:26:08.743Z,0.70
2023-05-07T10:31:20.881Z,0.60
2023-05-07T10:36:24.863Z,0.80
2023-05-07T10:41:26.938Z,0.80
2023-05-07T10:46:33.432Z,0.75
2023-05-07T10:51:36.660Z,0.85
2023-05-07T10:56:39.184Z,0.77
2023-05-07T11:01:57.292Z,0.80
2023-05-07T11:07:28.133Z,1.00
2023-05-07T11:12:52.266Z,1.08
2023-05-07T11:17:59.907Z,0.90
2023-05-07T11:23:03.234Z,1.50
2023-05-07T11:28:11.400Z,1.02
2023-05-07T11:33:15.051Z,0.90
2023-05-07T11:38:17.261Z,0.82
2023-05-07T11:43:19.387Z,0.82
2023-05-07T11:48:24.570Z,0.80
2023-05-07T11:53:28.107Z,0.80
2023-05-07T11:58:30.277Z,1.10
2023-05-07T12:03:36.209Z,1.33
2023-05-07T12:08:40.113Z,0.90
2023-05-07T12:13:42.003Z,0.80
2023-05-07T12:18:46.465Z,1.30
2023-05-07T12:23:49.000Z,0.90
2023-05-07T12:28:51.077Z,1.17
2023-05-07T12:33:54.840Z,0.80
2023-05-07T12:38:57.486Z,0.80
2023-05-07T12:43:59.743Z,1.00
2023-05-07T12:49:03.472Z,0.80
2023-05-07T12:54:06.052Z,0.80
2023-05-07T12:59:08.021Z,1.00
2023-05-07T13:04:11.644Z,0.88
2023-05-07T13:09:13.747Z,1.00
2023-05-07T13:14:16.502Z,0.93
2023-05-07T13:19:19.938Z,1.08
2023-05-07T13:24:22.064Z,0.80
2023-05-07T13:29:29.676Z,1.20
2023-05-07T13:34:32.801Z,1.15
2023-05-07T13:39:34.558Z,1.40
2023-05-07T13:44:36.835Z,1.00
2023-05-07T13:49:40.434Z,1.20
2023-05-07T13:54:42.552Z,1.20
2023-05-07T13:59:44.627Z,1.48
2023-05-07T14:04:47.883Z,1.67
2023-05-07T14:09:49.937Z,1.50
2023-05-07T14:14:52.110Z,1.50
2023-05-07T14:19:55.935Z,1.40
2023-05-07T14:25:14.398Z,1.80
2023-05-07T14:30:18.022Z,1.50
2023-05-07T14:35:21.537Z,1.65
2023-05-07T14:40:23.739Z,1.55
2023-05-07T14:45:26.641Z,1.92
2023-05-07T14:50:30.521Z,1.92
2023-05-07T14:55:33.607Z,1.80
2023-05-07T15:00:37.641Z,1.90
2023-05-07T15:05:42.623Z,2.10
2023-05-07T15:10:44.466Z,2.40
2023-05-07T15:15:47.415Z,1.92
2023-05-07T15:20:50.957Z,2.20
2023-05-07T15:25:52.836Z,2.50
2023-05-07T15:30:56.286Z,2.40
2023-05-07T15:36:00.816Z,2.25
2023-05-07T15:41:03.020Z,2.25
2023-05-07T15:46:07.049Z,2.30
2023-05-07T15:51:11.640Z,2.22
2023-05-07T15:56:14.658Z,2.10
2023-05-07T16:01:17.667Z,2.22
2023-05-07T16:06:22.595Z,2.40
2023-05-07T16:11:25.228Z,2.50
2023-05-07T16:16:30.692Z,3.05
2023-05-07T16:21:36.194Z,3.08
2023-05-07T16:26:38.778Z,3.22
2023-05-07T16:31:41.495Z,3.10
2023-05-07T16:36:45.598Z,2.90
2023-05-07T16:41:49.983Z,3.00
2023-05-07T16:46:54.074Z,2.97
2023-05-07T16:51:58.680Z,3.17
2023-05-07T16:57:01.712Z,3.20
2023-05-07T17:02:04.459Z,4.23
2023-05-07T17:07:09.057Z,3.20
2023-05-07T17:12:11.571Z,3.20
2023-05-07T17:17:14.733Z,1.13
2023-05-07T17:22:20.997Z,1.10
2023-05-07T17:27:32.286Z,1.30
2023-05-07T17:32:35.899Z,1.17
2023-05-07T17:37:40.201Z,1.27
2023-05-07T17:42:42.801Z,1.10
2023-05-07T17:47:45.741Z,1.43
2023-05-07T17:52:50.112Z,1.57
2023-05-07T17:57:53.233Z,1.40
2023-05-07T18:02:55.904Z,2.20
2023-05-07T18:08:00.222Z,1.87
2023-05-07T18:13:03.202Z,2.00
2023-05-07T18:18:06.580Z,1.80
2023-05-07T18:23:11.437Z,1.83
2023-05-07T18:28:14.481Z,2.80
2023-05-07T18:33:19.921Z,2.00
2023-05-07T18:38:24.794Z,1.97
2023-05-07T18:43:28.158Z,2.10
2023-05-07T18:48:30.973Z,2.93
2023-05-07T18:53:35.264Z,2.87
2023-05-07T18:58:38.048Z,1.90
2023-05-07T19:03:41.133Z,1.90
2023-05-07T19:08:45.624Z,1.90
2023-05-07T19:14:12.510Z,1.93
2023-05-07T19:19:42.054Z,2.40
2023-05-07T19:25:55.756Z,2.67
2023-05-07T19:31:21.685Z,2.47
2023-05-07T19:36:59.440Z,2.50
2023-05-07T19:48:38.049Z,2.80
2023-05-07T19:54:32.840Z,3.10
2023-05-07T20:06:43.204Z,3.13
2023-05-07T20:11:29.853Z,3.20
2023-05-07T20:16:45.381Z,3.17
2023-05-07T20:22:02.600Z,2.97
2023-05-07T20:27:37.162Z,3.20
2023-05-07T20:33:03.688Z,2.90
2023-05-07T20:38:38.489Z,3.27
2023-05-07T20:44:05.668Z,3.30
2023-05-07T20:49:33.274Z,2.97
2023-05-07T20:55:10.674Z,3.30
2023-05-07T21:00:37.570Z,3.57
2023-05-07T21:06:04.455Z,3.43
2023-05-07T21:11:31.131Z,4.00
2023-05-07T21:16:41.562Z,4.53
2023-05-07T21:21:44.358Z,4.67
2023-05-07T21:26:48.282Z,4.30
2023-05-07T21:31:50.601Z,4.87
2023-05-07T21:36:52.575Z,4.70
2023-05-07T21:41:59.054Z,4.13
2023-05-07T21:47:01.634Z,4.37
2023-05-07T21:52:03.702Z,4.57
2023-05-07T21:57:10.625Z,2.63
2023-05-07T22:02:16.076Z,2.80
2023-05-07T22:07:22.178Z,2.47
2023-05-07T22:12:28.373Z,2.33
2023-05-07T22:17:37.378Z,2.77
2023-05-07T22:22:52.282Z,2.50
2023-05-07T22:27:59.773Z,2.30
2023-05-07T22:33:12.685Z,2.00
2023-05-07T22:38:15.070Z,2.00
2023-05-07T22:43:18.548Z,1.80
2023-05-07T22:48:21.682Z,1.80
2023-05-07T22:53:23.572Z,1.47
2023-05-07T22:58:27.666Z,1.60
2023-05-07T23:03:29.895Z,1.60
2023-05-07T23:08:32.384Z,1.73
2023-05-07T23:13:35.584Z,1.60
2023-05-07T23:18:37.343Z,2.00
2023-05-07T23:23:39.484Z,1.77
2023-05-07T23:28:42.724Z,2.13
2023-05-07T23:33:44.709Z,2.10
2023-05-07T23:38:46.852Z,2.27
2023-05-07T23:43:49.850Z,2.40
2023-05-07T23:48:51.837Z,1.50
2023-05-07T23:53:53.954Z,1.40
2023-05-07T23:58:57.365Z,1.40
